createdAt,value
2019-05-15T00:01:08.524Z,99352.47
2019-05-15T00:03:39.363Z,99345.22
2019-05-15T00:06:11.027Z,99344.23
2019-05-15T00:08:42.280Z,99350.50
2019-05-15T00:11:14.040Z,99348.43
2019-05-15T00:13:45.413Z,99340.08
2019-05-15T00:16:18.143Z,99325.89
2019-05-15T00:18:50.805Z,99308.86
2019-05-15T00:21:24.151Z,99306.27
2019-05-15T00:23:55.858Z,99305.80
2019-05-15T00:26:27.258Z,99305.50
2019-05-15T00:29:12.101Z,99310.16
2019-05-15T00:31:35.613Z,99303.45
2019-05-15T00:34:12.497Z,99303.52
2019-05-15T00:36:40.785Z,99305.58
2019-05-15T00:39:19.667Z,99290.59
2019-05-15T00:41:54.772Z,99296.27
2019-05-15T00:44:28.039Z,99291.53
2019-05-15T00:47:00.266Z,99287.53
2019-05-15T00:49:31.821Z,99304.56
2019-05-15T00:52:03.250Z,99290.52
2019-05-15T00:54:36.157Z,99295.39
2019-05-15T00:57:09.894Z,99308.19
2019-05-15T00:59:41.489Z,99307.16
2019-05-15T01:02:12.946Z,99301.73
2019-05-15T01:04:44.553Z,99068.25
2019-05-15T01:07:18.662Z,99290.92
2019-05-15T01:09:49.244Z,99288.77
2019-05-15T01:12:20.681Z,99299.86
2019-05-15T01:14:52.844Z,99299.16
2019-05-15T01:17:24.768Z,99300.22
2019-05-15T01:19:58.717Z,99296.16
2019-05-15T01:22:31.731Z,99296.55
2019-05-15T01:25:03.732Z,99284.31
2019-05-15T01:27:45.043Z,99303.52
2019-05-15T01:30:18.317Z,99295.25
2019-05-15T01:32:49.577Z,99293.54
2019-05-15T01:35:22.643Z,99284.56
2019-05-15T01:37:55.355Z,99283.90
2019-05-15T01:40:28.931Z,99280.59
2019-05-15T01:43:02.642Z,99280.22
2019-05-15T01:45:33.888Z,99270.80
2019-05-15T01:48:05.089Z,99266.27
2019-05-15T01:50:38.796Z,99267.25
2019-05-15T01:53:11.606Z,99262.48
2019-05-15T01:55:42.909Z,99258.93
2019-05-15T01:58:14.450Z,99257.11
2019-05-15T02:00:48.228Z,99253.19
2019-05-15T02:03:19.121Z,99260.17
2019-05-15T02:05:50.557Z,99255.38
2019-05-15T02:08:21.826Z,99255.44
2019-05-15T02:10:53.392Z,99265.19
2019-05-15T02:13:24.931Z,99261.67
2019-05-15T02:15:58.898Z,99263.63
2019-05-15T02:18:30.248Z,99251.89
2019-05-15T02:21:06.235Z,99253.16
2019-05-15T02:23:38.617Z,99241.42
2019-05-15T02:26:10.525Z,99237.91
2019-05-15T02:28:41.859Z,99237.09
2019-05-15T02:31:13.451Z,99221.15
2019-05-15T02:33:49.826Z,99229.50
2019-05-15T02:36:21.352Z,99216.80
2019-05-15T02:38:52.910Z,99225.44
2019-05-15T02:41:24.633Z,99232.63
2019-05-15T02:43:59.024Z,99233.75
2019-05-15T02:46:30.113Z,99232.88
2019-05-15T02:49:01.821Z,99234.88
2019-05-15T02:51:33.489Z,99228.19
2019-05-15T02:54:05.181Z,99231.79
2019-05-15T02:56:39.325Z,99228.27
2019-05-15T02:59:11.885Z,99221.36
2019-05-15T03:01:49.096Z,99212.28
2019-05-15T03:04:19.934Z,99211.84
2019-05-15T03:06:52.059Z,99219.77
2019-05-15T03:09:23.417Z,99213.27
2019-05-15T03:11:55.103Z,99222.89
2019-05-15T03:14:30.765Z,99222.31
2019-05-15T03:17:05.571Z,99222.73
2019-05-15T03:19:39.343Z,99226.70
2019-05-15T03:22:11.598Z,99212.28
2019-05-15T03:24:44.781Z,99223.18
2019-05-15T03:27:19.747Z,99211.02
2019-05-15T03:29:51.217Z,99214.64
2019-05-15T03:32:35.852Z,99207.52
2019-05-15T03:35:04.109Z,99216.09
2019-05-15T03:37:33.542Z,99217.58
2019-05-15T03:40:20.617Z,99220.48
2019-05-15T03:42:52.219Z,99219.22
2019-05-15T03:45:23.991Z,99212.39
2019-05-15T03:47:55.448Z,99220.59
2019-05-15T03:50:28.953Z,99210.98
2019-05-15T03:53:02.277Z,99213.16
2019-05-15T03:55:35.379Z,99212.39
2019-05-15T03:58:09.886Z,99212.68
2019-05-15T04:00:42.430Z,99219.22
2019-05-15T04:03:15.651Z,99218.31
2019-05-15T04:05:49.405Z,99219.80
2019-05-15T04:08:20.628Z,99213.12
2019-05-15T04:10:52.253Z,99208.83
2019-05-15T04:13:23.724Z,99204.80
2019-05-15T04:15:55.152Z,99196.34
2019-05-15T04:18:29.167Z,99193.61
2019-05-15T04:21:00.503Z,99193.87
2019-05-15T04:23:32.066Z,99200.52
2019-05-15T04:26:03.740Z,99158.20
2019-05-15T04:28:41.220Z,99193.11
2019-05-15T04:31:10.607Z,99194.27
2019-05-15T04:33:42.642Z,99189.11
2019-05-15T04:36:13.991Z,99178.11
2019-05-15T04:38:49.374Z,99183.95
2019-05-15T04:41:20.139Z,99190.93
2019-05-15T04:43:52.586Z,99186.72
2019-05-15T04:46:24.101Z,99195.58
2019-05-15T04:48:59.549Z,99199.94
2019-05-15T04:51:34.557Z,99191.40
2019-05-15T04:54:09.276Z,99193.44
2019-05-15T04:56:41.892Z,99187.38
2019-05-15T04:59:15.094Z,99185.63
2019-05-15T05:01:51.250Z,99179.59
2019-05-15T05:04:20.635Z,99179.89
2019-05-15T05:06:53.340Z,99178.47
2019-05-15T05:09:24.750Z,99175.20
2019-05-15T05:11:58.249Z,99115.58
2019-05-15T05:14:32.717Z,99166.63
2019-05-15T05:17:04.246Z,99161.88
2019-05-15T05:19:35.963Z,99162.97
2019-05-15T05:22:12.312Z,99163.91
2019-05-15T05:24:43.514Z,99154.65
2019-05-15T05:27:14.702Z,99132.42
2019-05-15T05:29:48.032Z,99138.70
2019-05-15T05:32:31.213Z,99143.61
2019-05-15T05:34:52.703Z,99148.97
2019-05-15T05:37:27.940Z,99147.63
2019-05-15T05:39:59.433Z,99139.81
2019-05-15T05:42:30.890Z,99131.49
2019-05-15T05:45:15.295Z,99138.68
2019-05-15T05:47:58.073Z,99137.92
2019-05-15T05:51:09.581Z,99146.56
2019-05-15T05:53:59.991Z,99154.09
2019-05-15T05:57:09.141Z,99154.41
2019-05-15T06:00:21.417Z,99167.34
2019-05-15T06:02:53.718Z,99168.77
2019-05-15T06:05:28.019Z,99161.21
2019-05-15T06:07:59.019Z,99161.86
2019-05-15T06:10:32.569Z,99154.13
2019-05-15T06:13:08.676Z,99160.27
2019-05-15T06:15:40.589Z,99153.11
2019-05-15T06:18:14.198Z,99144.02
2019-05-15T06:20:49.407Z,99148.23
2019-05-15T06:23:24.221Z,99151.77
2019-05-15T06:25:55.338Z,99165.02
2019-05-15T06:28:28.983Z,99149.18
2019-05-15T06:31:03.483Z,99163.34
2019-05-15T06:33:34.757Z,99166.11
2019-05-15T06:36:09.202Z,99154.66
2019-05-15T06:38:48.362Z,99169.80
2019-05-15T06:41:20.752Z,99163.19
2019-05-15T06:43:52.599Z,99171.91
2019-05-15T06:46:24.312Z,99180.05
2019-05-15T06:48:58.140Z,99170.92
2019-05-15T06:51:29.989Z,99165.22
2019-05-15T06:54:01.526Z,99164.85
2019-05-15T06:56:34.901Z,99153.48
2019-05-15T06:59:08.635Z,98815.40
2019-05-15T07:01:39.755Z,99158.67
2019-05-15T07:04:11.008Z,99166.41
2019-05-15T07:06:49.149Z,99159.59
2019-05-15T07:09:21.019Z,99171.33
2019-05-15T07:11:52.460Z,99165.42
2019-05-15T07:14:24.043Z,99167.69
2019-05-15T07:16:59.045Z,99161.97
2019-05-15T07:19:30.850Z,99158.88
2019-05-15T07:22:02.492Z,99162.88
2019-05-15T07:24:34.283Z,99159.44
2019-05-15T07:27:07.982Z,99153.17
2019-05-15T07:29:39.485Z,99157.58
2019-05-15T07:32:11.070Z,99160.86
2019-05-15T07:34:42.779Z,99160.98
2019-05-15T07:37:15.005Z,99155.23
2019-05-15T07:39:48.624Z,99165.19
2019-05-15T07:42:19.432Z,99167.41
2019-05-15T07:44:50.888Z,99175.27
2019-05-15T07:47:22.304Z,99174.66
2019-05-15T07:49:55.174Z,99168.52
2019-05-15T07:52:28.829Z,99176.48
2019-05-15T07:55:02.771Z,99177.52
2019-05-15T07:57:45.829Z,99180.52
2019-05-15T08:00:19.600Z,99161.09
2019-05-15T08:02:50.890Z,99173.59
2019-05-15T08:05:22.242Z,99172.16
2019-05-15T08:07:54.518Z,99169.55
2019-05-15T08:10:28.347Z,99164.93
2019-05-15T08:12:59.396Z,99171.06
2019-05-15T08:15:33.907Z,99166.89
2019-05-15T08:18:11.889Z,99161.73
2019-05-15T08:20:42.415Z,99159.38
2019-05-15T08:23:13.878Z,99176.41
2019-05-15T08:25:49.060Z,99162.09
2019-05-15T08:28:22.094Z,99151.09
2019-05-15T08:30:54.709Z,99161.00
2019-05-15T08:33:28.051Z,99165.98
2019-05-15T08:35:59.577Z,99160.57
2019-05-15T08:38:32.185Z,99160.90
2019-05-15T08:41:05.300Z,99160.09
2019-05-15T08:44:00.926Z,99148.69
2019-05-15T08:46:33.947Z,99183.77
2019-05-15T08:49:08.993Z,99166.98
2019-05-15T08:51:39.364Z,99158.12
2019-05-15T08:54:10.655Z,99121.30
2019-05-15T08:56:49.949Z,99158.87
2019-05-15T08:59:21.198Z,99161.09
2019-05-15T09:01:55.165Z,99150.40
2019-05-15T09:04:33.608Z,99138.61
2019-05-15T09:07:02.034Z,99152.41
2019-05-15T09:09:33.439Z,99144.42
2019-05-15T09:12:04.689Z,99139.96
2019-05-15T09:14:38.066Z,99135.16
2019-05-15T09:17:09.250Z,99130.88
2019-05-15T09:19:40.865Z,99120.44
2019-05-15T09:22:29.118Z,99124.15
2019-05-15T09:25:00.329Z,99121.70
2019-05-15T09:27:38.187Z,99105.17
2019-05-15T09:30:19.356Z,99118.10
2019-05-15T09:32:50.790Z,99114.54
2019-05-15T09:35:22.585Z,99116.37
2019-05-15T09:37:54.552Z,99121.02
2019-05-15T09:40:41.727Z,99112.23
2019-05-15T09:42:59.040Z,99118.23
2019-05-15T09:45:30.428Z,99129.28
2019-05-15T09:48:03.294Z,99127.08
2019-05-15T09:50:35.203Z,99119.09
2019-05-15T09:53:09.282Z,99120.17
2019-05-15T09:55:40.520Z,99124.75
2019-05-15T09:58:12.895Z,99117.67
2019-05-15T10:00:52.056Z,99122.03
2019-05-15T10:03:22.024Z,99121.50
2019-05-15T10:05:55.648Z,99116.95
2019-05-15T10:08:29.222Z,99123.05
2019-05-15T10:11:02.126Z,99119.69
2019-05-15T10:13:33.628Z,99114.14
2019-05-15T10:16:05.128Z,99120.88
2019-05-15T10:18:42.181Z,99116.52
2019-05-15T10:21:14.049Z,99104.85
2019-05-15T10:23:49.492Z,99116.42
2019-05-15T10:26:21.194Z,99104.23
2019-05-15T10:28:52.596Z,99118.17
2019-05-15T10:31:23.951Z,99110.23
2019-05-15T10:33:55.392Z,99107.62
2019-05-15T10:36:28.015Z,99113.20
2019-05-15T10:39:02.713Z,99116.02
2019-05-15T10:41:34.093Z,99113.17
2019-05-15T10:44:05.633Z,99107.30
2019-05-15T10:46:39.144Z,99112.05
2019-05-15T10:49:10.769Z,99106.38
2019-05-15T10:51:42.856Z,99096.64
2019-05-15T10:54:14.144Z,99105.47
2019-05-15T10:56:48.903Z,99104.50
2019-05-15T10:59:20.641Z,99113.98
2019-05-15T11:01:55.291Z,99114.08
2019-05-15T11:04:29.003Z,99095.84
2019-05-15T11:07:02.583Z,99116.52
2019-05-15T11:09:34.488Z,99112.59
2019-05-15T11:12:08.751Z,99108.11
2019-05-15T11:14:40.201Z,99103.75
2019-05-15T11:17:11.442Z,99081.70
2019-05-15T11:19:42.722Z,99103.06
2019-05-15T11:22:14.577Z,99091.52
2019-05-15T11:24:50.839Z,99096.23
2019-05-15T11:27:21.821Z,99100.94
2019-05-15T11:29:53.859Z,99098.30
2019-05-15T11:32:25.201Z,99097.20
2019-05-15T11:34:58.935Z,99087.17
2019-05-15T11:37:30.243Z,99090.90
2019-05-15T11:40:01.605Z,99083.41
2019-05-15T11:42:42.618Z,99090.23
2019-05-15T11:45:19.059Z,99095.20
2019-05-15T11:47:50.358Z,99091.15
2019-05-15T11:50:24.032Z,99087.34
2019-05-15T11:52:55.319Z,99093.72
2019-05-15T11:55:29.148Z,99096.53
2019-05-15T11:58:01.337Z,99095.82
2019-05-15T12:00:32.559Z,99091.39
2019-05-15T12:03:04.070Z,99093.33
2019-05-15T12:05:40.662Z,99086.37
2019-05-15T12:08:12.725Z,99089.69
2019-05-15T12:10:45.602Z,99082.84
2019-05-15T12:13:18.914Z,99088.38
2019-05-15T12:15:49.858Z,99092.11
2019-05-15T12:18:21.348Z,99100.16
2019-05-15T12:20:52.670Z,99095.67
2019-05-15T12:23:24.207Z,99085.90
2019-05-15T12:25:55.572Z,99076.73
2019-05-15T12:28:29.523Z,99054.63
2019-05-15T12:31:01.189Z,99061.67
2019-05-15T12:33:34.884Z,99071.10
2019-05-15T12:36:10.501Z,99065.13
2019-05-15T12:38:40.371Z,99077.30
2019-05-15T13:01:50.859Z,99062.33
2019-05-15T13:04:23.562Z,99047.97
2019-05-15T13:07:11.709Z,99055.65
2019-05-15T13:09:28.050Z,99051.33
2019-05-15T13:11:59.923Z,99055.16
2019-05-15T13:14:31.624Z,99048.66
2019-05-15T13:17:03.515Z,98900.08
2019-05-15T13:19:35.236Z,99048.42
2019-05-15T13:22:17.926Z,99039.74
2019-05-15T13:24:41.652Z,99039.13
2019-05-15T13:27:13.395Z,99048.69
2019-05-15T13:29:45.920Z,99045.92
2019-05-15T13:32:17.765Z,99033.05
2019-05-15T13:34:49.195Z,99041.45
2019-05-15T13:37:27.339Z,99030.12
2019-05-15T13:39:54.825Z,99034.73
2019-05-15T13:42:28.092Z,99042.19
2019-05-15T13:45:00.165Z,99034.21
2019-05-15T13:47:33.143Z,99047.18
2019-05-15T13:50:14.818Z,99043.03
2019-05-15T13:52:48.147Z,99041.50
2019-05-15T13:55:25.363Z,99038.48
2019-05-15T13:57:54.437Z,99049.31
2019-05-15T14:00:28.931Z,99029.02
2019-05-15T14:03:02.168Z,99042.51
2019-05-15T14:05:34.216Z,99025.03
2019-05-15T14:08:07.849Z,99051.71
2019-05-15T14:10:39.452Z,99047.44
2019-05-15T14:13:13.499Z,99057.91
2019-05-15T14:15:45.518Z,99051.66
2019-05-15T14:18:19.464Z,99049.10
2019-05-15T14:20:51.191Z,99047.75
2019-05-15T14:23:23.001Z,99048.96
2019-05-15T14:25:58.689Z,99048.66
2019-05-15T14:28:30.793Z,99055.21
2019-05-15T14:31:02.148Z,99056.13
2019-05-15T14:33:35.166Z,99047.05
2019-05-15T14:36:08.464Z,99050.59
2019-05-15T14:38:40.303Z,99047.66
2019-05-15T14:41:11.685Z,99055.43
2019-05-15T14:43:43.629Z,99062.28
2019-05-15T14:46:18.530Z,99056.69
2019-05-15T14:48:50.739Z,99050.98
2019-05-15T14:51:22.011Z,99055.91
2019-05-15T14:53:53.841Z,99053.95
2019-05-15T14:56:29.641Z,99047.97
2019-05-15T14:59:00.837Z,99051.50
2019-05-15T15:01:32.434Z,99056.73
2019-05-15T15:04:03.641Z,99052.29
2019-05-15T15:06:35.088Z,99047.45
2019-05-15T15:09:21.299Z,99056.27
2019-05-15T15:12:03.857Z,99052.34
2019-05-15T15:14:43.752Z,99045.52
2019-05-15T15:17:15.366Z,99070.23
2019-05-15T15:20:01.705Z,99069.83
2019-05-15T15:22:58.782Z,99057.74
2019-05-15T15:25:40.834Z,99069.22
2019-05-15T15:28:21.196Z,99054.52
2019-05-15T15:31:02.777Z,99072.41
2019-05-15T15:33:58.908Z,99060.67
2019-05-15T15:36:59.744Z,99072.50
2019-05-15T15:39:48.187Z,99067.95
2019-05-15T15:42:20.216Z,99075.75
2019-05-15T15:45:20.209Z,99089.08
2019-05-15T15:48:09.772Z,99084.19
2019-05-15T15:51:00.289Z,99073.72
2019-05-15T15:53:40.467Z,99070.56
2019-05-15T15:56:11.985Z,99079.21
2019-05-15T15:58:45.127Z,99080.83
2019-05-15T16:01:18.573Z,99079.16
2019-05-15T16:03:50.755Z,99081.03
2019-05-15T16:06:23.250Z,99074.58
2019-05-15T16:08:55.885Z,99075.23
2019-05-15T16:11:27.979Z,99084.03
2019-05-15T16:13:59.852Z,99077.22
2019-05-15T16:16:31.799Z,99089.99
2019-05-15T16:19:04.240Z,99094.27
2019-05-15T16:21:39.381Z,99083.53
2019-05-15T16:24:17.319Z,99088.33
2019-05-15T16:26:44.571Z,99087.58
2019-05-15T16:29:18.308Z,99083.22
2019-05-15T16:31:50.007Z,99095.87
2019-05-15T16:34:21.530Z,99082.74
2019-05-15T16:36:52.803Z,99080.02
2019-05-15T16:39:25.236Z,99090.99
2019-05-15T16:41:59.668Z,99079.22
2019-05-15T16:44:31.753Z,99078.78
2019-05-15T16:47:03.021Z,99077.91
2019-05-15T16:49:38.985Z,99068.05
2019-05-15T16:52:14.075Z,99076.48
2019-05-15T16:54:48.965Z,99073.75
2019-05-15T16:57:22.609Z,99064.91
2019-05-15T16:59:58.593Z,99059.72
2019-05-15T17:02:32.129Z,99077.99
2019-05-15T17:05:14.761Z,99064.47
2019-05-15T17:07:48.837Z,99061.38
2019-05-15T17:10:24.768Z,99066.93
2019-05-15T17:12:58.452Z,99070.10
2019-05-15T17:15:31.624Z,99071.09
2019-05-15T17:18:03.179Z,99068.05
2019-05-15T17:20:34.502Z,99073.83
2019-05-15T17:23:08.856Z,99066.49
2019-05-15T17:25:41.706Z,99069.91
2019-05-15T17:28:18.534Z,99080.72
2019-05-15T17:30:50.150Z,99076.17
2019-05-15T17:33:21.930Z,99084.85
2019-05-15T17:35:53.360Z,99082.67
2019-05-15T17:38:33.885Z,99078.63
2019-05-15T17:41:28.634Z,99091.59
2019-05-15T17:44:06.780Z,99104.47
2019-05-15T17:46:49.433Z,99092.90
2019-05-15T17:49:29.951Z,99089.69
2019-05-15T17:52:19.638Z,99088.30
2019-05-15T17:55:14.446Z,99089.21
2019-05-15T17:57:54.602Z,99083.23
2019-05-15T18:00:20.188Z,99081.92
2019-05-15T18:02:52.421Z,99083.14
2019-05-15T18:05:25.227Z,99080.56
2019-05-15T18:07:58.733Z,99078.75
2019-05-15T18:10:30.746Z,99074.58
2019-05-15T18:13:03.746Z,99082.48
2019-05-15T18:15:39.159Z,99077.28
2019-05-15T18:18:13.695Z,99076.73
2019-05-15T18:20:50.142Z,99073.16
2019-05-15T18:23:23.598Z,99078.03
2019-05-15T18:25:54.674Z,99086.39
2019-05-15T18:28:27.051Z,99091.70
2019-05-15T18:30:58.964Z,99085.64
2019-05-15T18:33:31.757Z,99089.17
2019-05-15T18:36:03.462Z,99093.25
2019-05-15T18:38:34.889Z,99090.52
2019-05-15T18:41:08.898Z,99097.22
2019-05-15T18:43:41.941Z,99088.42
2019-05-15T18:46:18.165Z,99098.12
2019-05-15T18:48:48.862Z,99100.27
2019-05-15T18:51:20.611Z,99092.98
2019-05-15T18:53:51.935Z,99095.16
2019-05-15T18:56:24.895Z,99097.18
2019-05-15T18:58:57.802Z,99099.72
2019-05-15T19:01:29.246Z,99098.30
2019-05-15T19:04:02.797Z,99094.48
2019-05-15T19:06:34.041Z,99100.91
2019-05-15T19:09:08.142Z,99105.70
2019-05-15T19:11:41.330Z,99095.28
2019-05-15T19:14:12.741Z,99102.69
2019-05-15T19:16:48.316Z,99112.76
2019-05-15T19:19:19.804Z,99097.54
2019-05-15T19:21:52.910Z,99097.50
2019-05-15T19:24:24.341Z,99109.67
2019-05-15T19:26:55.849Z,99107.65
2019-05-15T19:29:28.450Z,99104.08
2019-05-15T19:32:00.001Z,99102.73
2019-05-15T19:34:31.263Z,99097.30
2019-05-15T19:37:02.830Z,99102.02
2019-05-15T19:39:34.552Z,99102.41
2019-05-15T19:42:08.923Z,99102.21
2019-05-15T19:44:40.404Z,99095.63
2019-05-15T19:47:12.090Z,99102.09
2019-05-15T19:49:45.337Z,99104.11
2019-05-15T19:52:18.024Z,99099.27
2019-05-15T19:54:51.398Z,99094.99
2019-05-15T19:57:53.964Z,99094.63
2019-05-15T20:01:01.556Z,99097.17
2019-05-15T20:03:45.395Z,99098.20
2019-05-15T20:06:42.977Z,99089.41
2019-05-15T20:09:18.277Z,99094.63
2019-05-15T20:11:49.947Z,99087.70
2019-05-15T20:14:22.910Z,99091.07
2019-05-15T20:16:55.660Z,99090.08
2019-05-15T20:19:28.778Z,99092.06
2019-05-15T20:22:02.436Z,99086.91
2019-05-15T20:24:33.763Z,99082.15
2019-05-15T20:27:05.475Z,99083.27
2019-05-15T20:29:38.336Z,99081.88
2019-05-15T20:32:10.958Z,99076.33
2019-05-15T20:34:45.316Z,99086.91
2019-05-15T20:37:19.440Z,99080.61
2019-05-15T20:39:53.834Z,99079.41
2019-05-15T20:42:25.327Z,99079.66
2019-05-15T20:44:57.922Z,99082.23
2019-05-15T20:47:30.031Z,99080.41
2019-05-15T20:50:01.259Z,99073.39
2019-05-15T20:52:42.694Z,99062.66
2019-05-15T20:55:16.957Z,99075.02
2019-05-15T20:57:50.548Z,99075.38
2019-05-15T21:00:24.216Z,99073.00
2019-05-15T21:02:57.901Z,99073.03
2019-05-15T21:05:32.946Z,99065.55
2019-05-15T21:08:05.612Z,99075.17
2019-05-15T21:10:42.753Z,99070.38
2019-05-15T21:13:12.003Z,99075.13
2019-05-15T21:15:43.704Z,99067.95
2019-05-15T21:18:19.665Z,99082.70
2019-05-15T21:20:50.130Z,99076.52
2019-05-15T21:23:23.753Z,99074.89
2019-05-15T21:25:58.871Z,99074.81
2019-05-15T21:28:30.157Z,99063.80
2019-05-15T21:31:01.664Z,99073.83
2019-05-15T21:33:35.658Z,99067.45
2019-05-15T21:36:09.342Z,99071.44
2019-05-15T21:38:40.795Z,99067.05
2019-05-15T21:41:12.278Z,98893.93
2019-05-15T21:43:44.185Z,99073.98
2019-05-15T21:46:18.753Z,99078.27
2019-05-15T21:48:51.744Z,99071.33
2019-05-15T21:51:23.893Z,99063.13
2019-05-15T21:53:55.424Z,99067.05
2019-05-15T21:56:28.002Z,99061.34
2019-05-15T21:59:01.231Z,99069.66
2019-05-15T22:01:33.204Z,99069.63
2019-05-15T22:04:05.566Z,99066.25
2019-05-15T22:06:39.542Z,99071.48
2019-05-15T22:09:18.376Z,99056.59
2019-05-15T22:12:01.412Z,99061.78
2019-05-15T22:14:40.030Z,99060.11
2019-05-15T22:17:11.733Z,99060.75
2019-05-15T22:19:48.973Z,99062.17
2019-05-15T22:22:20.520Z,99039.27
2019-05-15T22:25:30.450Z,99048.66
2019-05-15T22:28:02.654Z,99047.98
2019-05-15T22:30:33.839Z,99057.14
2019-05-15T22:33:05.192Z,99048.14
2019-05-15T22:35:37.677Z,99038.59
2019-05-15T22:38:11.127Z,99054.09
2019-05-15T22:40:45.173Z,99045.41
2019-05-15T22:43:18.466Z,99049.58
2019-05-15T22:45:49.469Z,99054.84
2019-05-15T22:48:20.698Z,99049.66
2019-05-15T22:50:52.108Z,99047.95
2019-05-15T22:53:23.676Z,99038.40
2019-05-15T22:55:55.744Z,99031.08
2019-05-15T22:58:28.169Z,99039.19
2019-05-15T23:00:59.957Z,99029.64
2019-05-15T23:03:31.312Z,99031.23
2019-05-15T23:06:03.475Z,99030.31
2019-05-15T23:08:35.221Z,99037.28
2019-05-15T23:11:09.482Z,99040.89
2019-05-15T23:13:42.107Z,99040.34
2019-05-15T23:16:13.650Z,99025.56
2019-05-15T23:18:45.222Z,99041.25
2019-05-15T23:21:18.302Z,99037.36
2019-05-15T23:23:50.205Z,99037.68
2019-05-15T23:26:22.329Z,99037.73
2019-05-15T23:28:54.147Z,99035.86
2019-05-15T23:31:28.110Z,99033.25
2019-05-15T23:33:59.455Z,99041.05
2019-05-15T23:36:30.916Z,99040.22
2019-05-15T23:39:02.528Z,99036.85
2019-05-15T23:41:33.891Z,99043.34
2019-05-15T23:44:08.397Z,99034.16
2019-05-15T23:46:42.621Z,99031.50
2019-05-15T23:49:14.552Z,99023.30
2019-05-15T23:51:46.110Z,99029.56
2019-05-15T23:54:18.554Z,99023.89
2019-05-15T23:56:51.593Z,99026.00
2019-05-15T23:59:23.067Z,99019.97
